Time;durP1;ratioP1;P1;durP2;ratioP2;P2;SDS_P1;SDS_P2;PMS_P1;PMS_P2;Temp;Humidity;BMP_temperature;BMP_pressure;BME280_temperature;BME280_humidity;BME280_pressure;Samples;Min_cycle;Max_cycle;Signal;HPM_P1;HPM_P2
2024/02/26 00:00:10;;;;;;;2.63;2.07;;;7.10;90.10;;;;;;5020528;28;21000;-75
2024/02/26 00:02:37;;;;;;;2.07;1.97;;;7.20;89.70;;;;;;5036849;28;20685;-75
2024/02/26 00:05:06;;;;;;;3.37;2.70;;;7.10;89.70;;;;;;5036524;28;20987;-75
2024/02/26 00:07:32;;;;;;;2.50;2.30;;;7.00;90.20;;;;;;5015655;28;20619;-75
2024/02/26 00:09:59;;;;;;;3.07;2.63;;;7.00;90.20;;;;;;5029034;28;20733;-75
2024/02/26 00:12:26;;;;;;;2.97;2.37;;;7.00;90.70;;;;;;5023703;28;20831;-75
2024/02/26 00:14:53;;;;;;;2.67;2.47;;;7.00;90.70;;;;;;5026781;28;21215;-75
2024/02/26 00:17:21;;;;;;;3.77;2.97;;;7.10;90.50;;;;;;5029222;28;20661;-75
2024/02/26 00:19:48;;;;;;;5.63;3.10;;;7.20;90.20;;;;;;5033994;28;20623;-75
2024/02/26 00:22:15;;;;;;;2.60;2.40;;;7.10;90.20;;;;;;5008809;28;20620;-75
2024/02/26 00:24:42;;;;;;;2.60;2.40;;;7.20;90.20;;;;;;5024222;28;20651;-75
2024/02/26 00:27:09;;;;;;;2.40;2.17;;;7.20;90.10;;;;;;5021336;28;20639;-75
2024/02/26 00:29:34;;;;;;;3.10;2.30;;;7.30;89.90;;;;;;5017743;28;20619;-75
2024/02/26 00:32:01;;;;;;;2.10;1.90;;;7.30;89.70;;;;;;5028023;28;20753;-75
2024/02/26 00:34:29;;;;;;;3.10;2.33;;;7.20;89.90;;;;;;5024497;28;20565;-75
2024/02/26 00:36:56;;;;;;;2.40;2.03;;;7.40;89.60;;;;;;5008935;28;20966;-75
2024/02/26 00:39:23;;;;;;;3.23;2.00;;;7.20;89.80;;;;;;5026626;28;20624;-75
2024/02/26 00:41:51;;;;;;;1.93;1.83;;;7.10;90.30;;;;;;5020750;28;21199;-75
2024/02/26 00:44:18;;;;;;;2.67;2.30;;;7.00;90.30;;;;;;5030371;28;21299;-75
2024/02/26 00:46:45;;;;;;;2.10;1.50;;;7.00;90.30;;;;;;5036434;28;20646;-75
2024/02/26 00:49:11;;;;;;;2.37;2.17;;;7.00;90.50;;;;;;5022634;28;20648;-75
2024/02/26 00:51:39;;;;;;;4.90;2.40;;;6.90;90.60;;;;;;5024506;28;20710;-75
2024/02/26 00:54:06;;;;;;;3.23;1.97;;;6.90;90.40;;;;;;5021683;28;20612;-75
2024/02/26 00:56:33;;;;;;;3.23;2.07;;;6.90;90.40;;;;;;5020851;28;20611;-75
2024/02/26 00:59:00;;;;;;;1.63;1.53;;;6.90;90.50;;;;;;5015873;28;20638;-75
2024/02/26 01:01:27;;;;;;;2.10;1.90;;;8.00;91.20;;;;;;5012422;28;20612;-75
2024/02/26 01:03:53;;;;;;;2.60;2.23;;;6.90;90.60;;;;;;5035028;28;21007;-75
2024/02/26 01:06:22;;;;;;;4.37;2.43;;;7.00;90.70;;;;;;5044004;28;20637;-75
2024/02/26 01:08:50;;;;;;;2.10;1.90;;;7.00;90.90;;;;;;5077340;27;20619;-75
2024/02/26 01:11:17;;;;;;;2.57;2.20;;;6.90;90.80;;;;;;5017412;28;20646;-75
2024/02/26 01:13:43;;;;;;;2.63;2.10;;;6.90;90.90;;;;;;5019017;28;21195;-75
2024/02/26 01:16:11;;;;;;;2.27;2.07;;;6.80;92.50;;;;;;5027793;28;21199;-75
2024/02/26 01:18:38;;;;;;;2.57;2.37;;;6.90;90.70;;;;;;5034869;28;20626;-76
2024/02/26 01:21:06;;;;;;;2.70;2.17;;;6.90;91.10;;;;;;5020034;28;20631;-76
2024/02/26 01:23:33;;;;;;;2.20;2.00;;;6.90;90.80;;;;;;5028307;28;20673;-75
2024/02/26 01:26:02;;;;;;;2.40;2.20;;;7.00;90.90;;;;;;5022343;28;20623;-75
2024/02/26 01:28:29;;;;;;;2.20;2.10;;;7.00;91.00;;;;;;5012112;28;20620;-75
2024/02/26 01:30:56;;;;;;;2.63;1.63;;;7.00;91.00;;;;;;5021952;28;20624;-75
2024/02/26 01:33:23;;;;;;;2.33;1.80;;;;;;;;;;5018107;28;20681;-75
2024/02/26 01:35:50;;;;;;;2.37;2.17;;;7.00;90.70;;;;;;5019697;28;20628;-75
2024/02/26 01:38:17;;;;;;;2.47;2.20;;;6.80;90.50;;;;;;5028402;28;20714;-75
2024/02/26 01:40:44;;;;;;;2.07;1.97;;;6.80;91.00;;;;;;5015300;28;21181;-75
2024/02/26 01:43:12;;;;;;;2.77;2.53;;;6.70;91.00;;;;;;5011267;28;21202;-75
2024/02/26 01:45:38;;;;;;;2.60;2.40;;;6.80;91.50;;;;;;5035939;28;20671;-75
2024/02/26 01:48:06;;;;;;;2.20;2.00;;;6.90;91.50;;;;;;5029905;28;20986;-75
2024/02/26 01:50:34;;;;;;;3.37;2.13;;;6.90;91.50;;;;;;5035420;28;21030;-75
2024/02/26 01:53:02;;;;;;;3.10;2.77;;;6.90;91.30;;;;;;5018189;28;20626;-75
2024/02/26 01:55:28;;;;;;;2.53;2.33;;;6.70;91.10;;;;;;5029466;28;20663;-75
2024/02/26 01:57:55;;;;;;;4.20;2.20;;;6.80;91.70;;;;;;5038796;28;20633;-75
2024/02/26 02:00:24;;;;;;;3.40;2.37;;;6.70;91.80;;;;;;5027498;28;20997;-75
2024/02/26 02:02:52;;;;;;;3.07;2.77;;;6.70;91.80;;;;;;5032621;28;20620;-75
2024/02/26 02:05:21;;;;;;;4.57;2.63;;;6.80;91.70;;;;;;5022569;28;20669;-75
2024/02/26 02:07:48;;;;;;;3.17;2.73;;;6.80;91.90;;;;;;5033088;28;20631;-75
2024/02/26 02:10:18;;;;;;;2.67;2.47;;;6.80;91.70;;;;;;5026941;28;20613;-75
2024/02/26 02:12:44;;;;;;;2.80;2.30;;;6.90;91.00;;;;;;5009986;28;20843;-75
2024/02/26 02:15:12;;;;;;;2.20;1.83;;;6.90;90.60;;;;;;5016896;28;20627;-75
2024/02/26 02:17:41;;;;;;;2.50;1.80;;;7.00;96.00;;;;;;5026274;28;20651;-75
2024/02/26 02:20:10;;;;;;;2.47;2.27;;;6.90;88.80;;;;;;5036462;28;20630;-75
2024/02/26 02:22:38;;;;;;;2.00;1.53;;;6.90;87.70;;;;;;5047211;28;20623;-75
2024/02/26 02:25:06;;;;;;;1.33;1.23;;;6.90;86.90;;;;;;5007297;28;20656;-75
2024/02/26 02:27:34;;;;;;;2.60;2.10;;;6.90;88.70;;;;;;5009294;28;20689;-75
2024/02/26 02:30:03;;;;;;;1.67;1.57;;;6.90;87.00;;;;;;5035445;28;21022;-75
2024/02/26 02:32:31;;;;;;;1.67;1.58;;;6.80;87.20;;;;;;5020230;28;21005;-75
2024/02/26 02:34:58;;;;;;;2.03;1.37;;;6.90;87.90;;;;;;5012027;28;20204;-75
2024/02/26 02:37:26;;;;;;;8.30;2.40;;;7.00;87.70;;;;;;5025100;28;20631;-75
2024/02/26 02:39:57;;;;;;;1.43;1.30;;;6.90;88.60;;;;;;5035335;28;21095;-75
2024/02/26 02:42:24;;;;;;;1.53;1.43;;;6.90;90.10;;;;;;5031739;28;20612;-75
2024/02/26 02:44:52;;;;;;;2.20;1.67;;;6.90;87.20;;;;;;5026112;28;21080;-75
2024/02/26 02:47:19;;;;;;;1.67;1.50;;;6.80;88.60;;;;;;5030133;28;20722;-75
2024/02/26 02:49:47;;;;;;;1.33;1.23;;;6.80;90.10;;;;;;5037253;28;20709;-75
2024/02/26 02:52:15;;;;;;;5.73;1.80;;;6.80;90.40;;;;;;5028744;28;20716;-75
2024/02/26 02:54:43;;;;;;;1.33;1.17;;;6.80;90.50;;;;;;5038436;28;20999;-74
2024/02/26 02:57:12;;;;;;;2.07;1.53;;;6.80;90.40;;;;;;5023765;28;20739;-74
2024/02/26 02:59:40;;;;;;;2.80;1.77;;;6.80;90.40;;;;;;5014911;28;20623;-74
2024/02/26 03:02:07;;;;;;;1.47;1.37;;;6.80;91.00;;;;;;5023481;28;20732;-74
2024/02/26 03:04:34;;;;;;;2.03;1.55;;;7.30;94.60;;;;;;5021260;28;20770;-74
2024/02/26 03:07:01;;;;;;;1.87;1.77;;;6.80;91.90;;;;;;5036667;28;20913;-74
2024/02/26 03:09:27;;;;;;;1.60;1.17;;;6.70;91.90;;;;;;5020921;28;20633;-74
2024/02/26 03:11:54;;;;;;;2.00;1.30;;;6.70;92.40;;;;;;5022238;28;20954;-74
2024/02/26 03:14:23;;;;;;;1.37;1.23;;;6.70;91.60;;;;;;5030031;28;21011;-74
2024/02/26 03:16:50;;;;;;;1.80;1.30;;;6.90;97.10;;;;;;5038092;28;20627;-74
2024/02/26 03:19:17;;;;;;;1.23;1.17;;;6.70;92.50;;;;;;5033148;28;20712;-74
2024/02/26 03:21:43;;;;;;;0.68;0.68;;;6.70;91.70;;;;;;5029908;28;20639;-74
2024/02/26 03:24:11;;;;;;;0.80;0.73;;;6.90;90.90;;;;;;5019450;28;20247;-74
2024/02/26 03:26:39;;;;;;;0.60;0.60;;;7.20;90.20;;;;;;5016904;28;20683;-74
2024/02/26 03:29:06;;;;;;;0.50;0.50;;;7.30;90.10;;;;;;5026971;28;20665;-74
2024/02/26 03:31:34;;;;;;;0.60;0.60;;;7.30;90.60;;;;;;5026393;28;20623;-74
2024/02/26 03:34:02;;;;;;;0.70;0.70;;;7.30;90.10;;;;;;5022787;28;20645;-74
2024/02/26 03:36:29;;;;;;;1.07;0.97;;;7.40;89.70;;;;;;5031165;28;20630;-74
2024/02/26 03:38:56;;;;;;;1.00;0.80;;;7.40;88.30;;;;;;5032376;28;21158;-74
2024/02/26 03:41:24;;;;;;;2.10;0.80;;;7.40;90.10;;;;;;5026796;28;20672;-74
2024/02/26 03:43:51;;;;;;;0.80;0.60;;;7.40;90.40;;;;;;5028541;28;20624;-74
2024/02/26 03:46:18;;;;;;;0.73;0.73;;;7.30;90.90;;;;;;5020561;28;20660;-74
2024/02/26 03:48:47;;;;;;;1.07;1.07;;;7.30;91.00;;;;;;5025262;28;20672;-74
2024/02/26 03:51:14;;;;;;;0.87;0.80;;;7.30;90.10;;;;;;5024391;28;20625;-74
2024/02/26 03:53:41;;;;;;;0.80;0.80;;;7.20;91.30;;;;;;5022485;28;20704;-74
2024/02/26 03:56:09;;;;;;;1.20;1.10;;;7.20;92.40;;;;;;5023798;28;20201;-74
2024/02/26 03:58:36;;;;;;;0.90;0.90;;;7.10;91.80;;;;;;5005908;28;20662;-74
2024/02/26 04:01:03;;;;;;;0.80;0.80;;;7.20;92.20;;;;;;5020386;28;20979;-74
2024/02/26 04:03:30;;;;;;;0.70;0.67;;;7.20;92.10;;;;;;5034857;28;20628;-74
2024/02/26 04:05:58;;;;;;;1.27;1.07;;;7.20;92.80;;;;;;5048975;28;20746;-75
2024/02/26 04:08:25;;;;;;;1.10;1.00;;;7.30;92.40;;;;;;5036747;28;21188;-74
2024/02/26 04:10:52;;;;;;;1.40;1.30;;;7.30;91.60;;;;;;5038378;28;20651;-74
2024/02/26 04:13:18;;;;;;;2.50;0.80;;;7.30;91.20;;;;;;5024324;28;20643;-74
2024/02/26 04:15:46;;;;;;;2.87;0.93;;;7.30;91.70;;;;;;5020366;28;21188;-74
2024/02/26 04:18:14;;;;;;;0.70;0.67;;;7.30;91.50;;;;;;5025136;28;20666;-74
2024/02/26 04:20:42;;;;;;;0.80;0.80;;;7.30;91.60;;;;;;5014847;28;21024;-74
2024/02/26 04:23:11;;;;;;;1.53;1.43;;;7.20;91.10;;;;;;5044113;28;20699;-74
2024/02/26 04:25:40;;;;;;;1.23;1.10;;;7.20;91.30;;;;;;5057802;28;20702;-74
2024/02/26 04:28:08;;;;;;;1.27;1.17;;;7.30;90.90;;;;;;5070280;28;20627;-74
2024/02/26 04:30:35;;;;;;;1.40;1.30;;;7.30;90.70;;;;;;5066701;27;21048;-74
2024/02/26 04:33:02;;;;;;;1.33;1.23;;;7.40;90.70;;;;;;5038878;28;21327;-74
2024/02/26 04:35:29;;;;;;;2.30;1.43;;;7.30;90.40;;;;;;5027113;28;20619;-74
2024/02/26 04:37:56;;;;;;;1.77;1.40;;;7.10;90.70;;;;;;5028535;28;20710;-75
2024/02/26 04:40:24;;;;;;;1.73;1.10;;;7.20;90.90;;;;;;5020366;28;20723;-74
2024/02/26 04:42:51;;;;;;;1.70;1.60;;;7.20;90.70;;;;;;5029308;28;20631;-75
2024/02/26 04:45:18;;;;;;;1.43;1.33;;;6.90;91.60;;;;;;5072674;27;20773;-74
2024/02/26 04:47:45;;;;;;;1.70;1.60;;;7.10;90.90;;;;;;5031080;28;20616;-75
2024/02/26 04:50:11;;;;;;;1.53;1.40;;;7.20;90.70;;;;;;5032559;28;21243;-74
2024/02/26 04:52:38;;;;;;;3.30;1.77;;;7.20;90.80;;;;;;5038713;28;20647;-74
2024/02/26 04:55:05;;;;;;;2.30;2.10;;;7.10;90.90;;;;;;5027296;28;20635;-74
2024/02/26 04:57:33;;;;;;;3.77;2.20;;;7.10;91.20;;;;;;5016692;28;20688;-74
2024/02/26 05:00:00;;;;;;;3.57;2.73;;;7.20;90.90;;;;;;5021164;28;20639;-74
2024/02/26 05:02:27;;;;;;;2.80;2.60;;;7.40;90.50;;;;;;5066586;27;20620;-74
2024/02/26 05:04:54;;;;;;;2.40;2.20;;;7.10;90.40;;;;;;5046325;27;20221;-75
2024/02/26 05:07:20;;;;;;;3.87;2.87;;;7.20;90.50;;;;;;5041620;28;20207;-74
2024/02/26 05:09:49;;;;;;;3.08;2.78;;;7.20;90.70;;;;;;5034792;28;20722;-74
2024/02/26 05:12:16;;;;;;;3.08;2.30;;;7.00;90.60;;;;;;5035669;28;20644;-74
2024/02/26 05:14:44;;;;;;;2.45;2.25;;;7.00;90.60;;;;;;5043338;27;20193;-74
2024/02/26 05:17:11;;;;;;;3.07;2.60;;;6.90;90.90;;;;;;5078040;27;20197;-74
2024/02/26 05:19:38;;;;;;;2.60;2.37;;;6.90;91.20;;;;;;5008994;28;20628;-74
2024/02/26 05:22:04;;;;;;;2.60;2.40;;;6.90;91.50;;;;;;5029010;28;20631;-74
2024/02/26 05:24:31;;;;;;;3.00;2.70;;;6.90;91.40;;;;;;5033476;28;20558;-74
2024/02/26 05:26:58;;;;;;;2.75;2.40;;;6.80;92.20;;;;;;5007069;28;20292;-75
2024/02/26 05:29:25;;;;;;;2.53;2.33;;;6.80;92.80;;;;;;5033928;28;20197;-74
2024/02/26 05:31:54;;;;;;;3.10;2.30;;;6.80;92.80;;;;;;5024016;28;20658;-74
2024/02/26 05:34:21;;;;;;;4.80;2.93;;;6.80;93.10;;;;;;5036535;28;21069;-75
2024/02/26 05:36:48;;;;;;;2.95;2.70;;;6.70;93.30;;;;;;5024391;28;20635;-74
2024/02/26 05:39:16;;;;;;;3.83;2.30;;;6.60;93.30;;;;;;5022098;28;20581;-74
2024/02/26 05:41:43;;;;;;;3.08;2.78;;;6.60;93.60;;;;;;5023120;28;20625;-74
2024/02/26 05:44:10;;;;;;;5.80;2.67;;;6.60;94.10;;;;;;5030441;28;20196;-74
2024/02/26 05:46:37;;;;;;;3.60;3.03;;;6.70;94.50;;;;;;5028689;28;20667;-74
2024/02/26 05:49:05;;;;;;;2.63;2.40;;;6.60;94.40;;;;;;5025762;28;20200;-74
2024/02/26 05:51:32;;;;;;;1.83;1.73;;;6.70;94.40;;;;;;5094644;27;20198;-74
2024/02/26 05:53:58;;;;;;;2.15;1.95;;;6.90;94.30;;;;;;5034741;27;20647;-74
2024/02/26 05:56:25;;;;;;;2.97;2.30;;;7.00;94.60;;;;;;5013110;28;20425;-75
2024/02/26 05:58:54;;;;;;;2.80;2.60;;;6.60;96.10;;;;;;5047494;27;20308;-74
2024/02/26 06:01:21;;;;;;;3.27;2.97;;;6.40;96.40;;;;;;5040488;27;20634;-73
2024/02/26 06:03:48;;;;;;;3.10;2.90;;;6.40;97.40;;;;;;5026915;28;21204;-73
2024/02/26 06:06:16;;;;;;;6.05;5.07;;;6.30;98.20;;;;;;5028872;27;20651;-76
2024/02/26 06:08:42;;;;;;;3.47;3.17;;;6.20;99.90;;;;;;5072356;27;20284;-75
2024/02/26 06:11:09;;;;;;;4.10;3.60;;;6.20;98.90;;;;;;5020526;28;20193;-75
2024/02/26 06:13:36;;;;;;;4.55;3.90;;;6.10;99.90;;;;;;5016467;28;20737;-75
2024/02/26 06:16:04;;;;;;;3.70;3.40;;;6.10;99.30;;;;;;5019418;28;20188;-75
2024/02/26 06:18:31;;;;;;;5.65;3.70;;;6.00;99.70;;;;;;5019165;28;20205;-75
2024/02/26 06:20:58;;;;;;;4.45;3.33;;;6.10;99.50;;;;;;5018202;28;20200;-74
2024/02/26 06:23:26;;;;;;;4.00;3.60;;;6.10;99.90;;;;;;5026332;28;20292;-75
2024/02/26 06:25:53;;;;;;;4.38;3.30;;;6.10;99.90;;;;;;5024539;28;20232;-75
2024/02/26 06:28:20;;;;;;;3.10;2.75;;;6.10;99.90;;;;;;5033360;28;20196;-75
2024/02/26 06:30:47;;;;;;;3.35;2.63;;;6.10;99.70;;;;;;5059542;27;20221;-75
2024/02/26 06:33:14;;;;;;;4.22;2.47;;;6.10;99.60;;;;;;5041360;27;20216;-73
2024/02/26 06:35:41;;;;;;;4.70;2.90;;;6.00;99.60;;;;;;5026690;28;20299;-76
2024/02/26 06:38:09;;;;;;;3.28;2.85;;;6.00;99.50;;;;;;5021474;27;20285;-74
2024/02/26 06:40:37;;;;;;;3.67;2.90;;;6.00;99.40;;;;;;5022811;28;20200;-76
2024/02/26 06:43:04;;;;;;;2.55;2.35;;;5.90;99.70;;;;;;5039981;27;20602;-75
2024/02/26 06:45:31;;;;;;;2.60;2.38;;;5.90;99.90;;;;;;5019208;28;20227;-76
2024/02/26 06:47:57;;;;;;;3.05;2.85;;;5.80;99.90;;;;;;5024858;28;20208;-75
2024/02/26 06:50:24;;;;;;;2.87;2.67;;;5.80;99.90;;;;;;5025241;28;20296;-74
2024/02/26 06:52:51;;;;;;;2.97;2.72;;;5.90;99.90;;;;;;5023544;28;20630;-75
2024/02/26 06:55:18;;;;;;;2.70;2.22;;;5.90;99.90;;;;;;5023782;28;20220;-74
2024/02/26 06:57:46;;;;;;;4.07;3.08;;;5.90;99.90;;;;;;5019880;28;20588;-74
2024/02/26 07:00:16;;;;;;;3.97;2.75;;;6.00;99.90;;;;;;5025261;28;20223;-74
2024/02/26 07:02:43;;;;;;;2.45;2.17;;;6.00;99.90;;;;;;5023483;28;20284;-75
2024/02/26 07:05:10;;;;;;;5.60;3.40;;;6.20;99.90;;;;;;5023241;28;20196;-75
2024/02/26 07:07:36;;;;;;;2.72;2.53;;;6.30;99.90;;;;;;5058528;27;20197;-74
2024/02/26 07:10:05;;;;;;;3.30;3.03;;;6.30;99.90;;;;;;5028263;27;20199;-75
2024/02/26 07:12:32;;;;;;;3.35;3.05;;;6.40;99.90;;;;;;5025636;28;20197;-75
2024/02/26 07:15:00;;;;;;;5.28;3.40;;;6.40;99.90;;;;;;5031333;28;20245;-74
2024/02/26 07:17:27;;;;;;;3.90;3.30;;;6.50;99.90;;;;;;5022943;28;20276;-75
2024/02/26 07:19:54;;;;;;;3.63;3.33;;;6.50;99.60;;;;;;5031135;28;20196;-74
2024/02/26 07:22:21;;;;;;;5.50;5.00;;;6.60;99.90;;;;;;5028653;28;21476;-75
2024/02/26 07:24:47;;;;;;;6.87;6.17;;;6.70;99.90;;;;;;5021528;28;20638;-75
2024/02/26 07:27:17;;;;;;;5.80;5.30;;;6.70;99.80;;;;;;5024246;28;20679;-75
2024/02/26 07:29:44;;;;;;;4.93;4.17;;;6.70;99.70;;;;;;5027913;28;20762;-74
2024/02/26 07:32:12;;;;;;;4.05;3.75;;;6.80;99.20;;;;;;5026509;28;20635;-75
2024/02/26 07:34:41;;;;;;;4.23;3.87;;;6.90;98.40;;;;;;5030244;28;20256;-75
2024/02/26 07:37:08;;;;;;;4.77;4.37;;;6.90;97.50;;;;;;5025647;28;20632;-75
2024/02/26 07:39:35;;;;;;;4.73;3.77;;;7.00;97.60;;;;;;5024773;28;20638;-75
2024/02/26 07:42:01;;;;;;;6.47;4.77;;;7.00;97.90;;;;;;5027746;28;20630;-75
2024/02/26 07:44:28;;;;;;;5.77;3.37;;;7.00;97.60;;;;;;5029788;28;20727;-75
2024/02/26 07:46:55;;;;;;;4.03;3.60;;;7.00;97.50;;;;;;5028472;28;20717;-75
2024/02/26 07:49:23;;;;;;;4.00;3.07;;;7.10;97.80;;;;;;5026928;28;20641;-75
2024/02/26 07:51:50;;;;;;;6.57;2.60;;;7.20;97.60;;;;;;5024206;28;20639;-75
2024/02/26 07:54:17;;;;;;;4.10;3.70;;;7.20;97.20;;;;;;5031674;28;21184;-75
2024/02/26 07:56:44;;;;;;;6.00;4.00;;;7.20;97.40;;;;;;5024620;28;20755;-75
2024/02/26 07:59:11;;;;;;;6.73;2.70;;;7.10;99.60;;;;;;5023956;28;20738;-75
2024/02/26 08:01:39;;;;;;;4.27;2.43;;;7.30;97.30;;;;;;5026521;28;20653;-75
2024/02/26 08:04:06;;;;;;;5.87;2.50;;;7.50;96.70;;;;;;5025702;28;20949;-75
2024/02/26 08:06:34;;;;;;;3.27;2.97;;;7.40;96.90;;;;;;5018782;28;20663;-75
2024/02/26 08:09:01;;;;;;;3.13;2.83;;;7.50;96.90;;;;;;5032494;28;20636;-75
2024/02/26 08:11:28;;;;;;;3.43;2.50;;;7.50;96.90;;;;;;5032164;28;21012;-75
2024/02/26 08:13:54;;;;;;;2.90;2.10;;;7.50;96.50;;;;;;5033382;28;20726;-75
2024/02/26 08:16:21;;;;;;;3.03;2.23;;;7.70;96.30;;;;;;5030585;28;20624;-75
2024/02/26 08:18:48;;;;;;;2.63;2.43;;;7.80;95.80;;;;;;5031194;28;21194;-74
2024/02/26 08:21:15;;;;;;;3.87;3.13;;;7.80;95.40;;;;;;5029411;28;20666;-74
2024/02/26 08:23:44;;;;;;;4.00;3.27;;;7.90;95.20;;;;;;5032931;28;20629;-74
2024/02/26 08:26:11;;;;;;;3.53;3.03;;;6.10;97.50;;;;;;5031634;28;20673;-75
2024/02/26 08:28:38;;;;;;;2.57;2.37;;;7.70;94.70;;;;;;5033502;28;20720;-75
2024/02/26 08:31:05;;;;;;;2.50;2.17;;;7.70;94.30;;;;;;5028423;28;21065;-75
2024/02/26 08:33:33;;;;;;;3.03;2.67;;;7.70;94.60;;;;;;5032909;28;20631;-75
2024/02/26 08:36:04;;;;;;;6.60;3.73;;;7.70;94.20;;;;;;5030744;28;20643;-75
2024/02/26 08:38:31;;;;;;;3.97;3.27;;;7.70;94.30;;;;;;5032016;28;20631;-74
2024/02/26 08:40:59;;;;;;;3.43;3.13;;;7.80;94.30;;;;;;5031205;28;20665;-74
2024/02/26 08:43:26;;;;;;;3.13;2.80;;;7.90;93.80;;;;;;5030545;28;21151;-74
2024/02/26 08:45:53;;;;;;;3.47;3.20;;;7.90;93.60;;;;;;5027245;28;20627;-75
2024/02/26 08:48:20;;;;;;;3.20;2.93;;;8.00;93.10;;;;;;5031135;28;20623;-74
2024/02/26 08:50:47;;;;;;;3.63;2.90;;;8.00;93.30;;;;;;5027030;27;20643;-74
2024/02/26 08:53:13;;;;;;;4.30;3.10;;;8.10;93.20;;;;;;5027035;28;20641;-74
2024/02/26 08:55:40;;;;;;;5.57;2.50;;;8.20;92.70;;;;;;5029859;28;21197;-74
2024/02/26 08:58:08;;;;;;;4.93;3.10;;;8.10;93.00;;;;;;5021038;28;20637;-74
2024/02/26 09:00:35;;;;;;;4.80;2.30;;;8.20;92.10;;;;;;5021303;28;20636;-74
2024/02/26 09:03:02;;;;;;;4.07;3.67;;;8.20;92.50;;;;;;5027621;28;20730;-74
2024/02/26 09:05:29;;;;;;;3.70;3.40;;;8.20;92.50;;;;;;5018463;28;20671;-74
2024/02/26 09:07:55;;;;;;;3.10;2.90;;;8.20;93.00;;;;;;5027718;28;20995;-74
2024/02/26 09:10:23;;;;;;;4.03;2.60;;;8.20;92.80;;;;;;5017551;28;20622;-74
2024/02/26 09:12:50;;;;;;;5.47;2.33;;;8.30;92.20;;;;;;5023292;28;20628;-74
2024/02/26 09:15:18;;;;;;;3.43;2.30;;;8.30;91.40;;;;;;5024019;28;20643;-74
2024/02/26 09:17:45;;;;;;;2.67;2.00;;;8.30;91.90;;;;;;5028750;28;20723;-74
2024/02/26 09:20:14;;;;;;;2.30;1.47;;;8.30;92.10;;;;;;5025107;28;20627;-74
2024/02/26 09:22:42;;;;;;;2.10;1.80;;;8.40;92.50;;;;;;5029154;28;21103;-74
2024/02/26 09:25:09;;;;;;;2.77;2.10;;;8.40;92.10;;;;;;5024851;28;21164;-75
2024/02/26 09:27:36;;;;;;;2.33;1.70;;;8.40;91.60;;;;;;5024197;28;21190;-75
2024/02/26 09:30:04;;;;;;;2.03;1.67;;;8.50;91.70;;;;;;5023173;28;20661;-74
2024/02/26 09:32:32;;;;;;;1.60;1.50;;;8.50;90.10;;;;;;5024237;28;20716;-75
2024/02/26 09:34:59;;;;;;;2.43;2.23;;;8.60;90.30;;;;;;5013812;28;20721;-75
2024/02/26 09:37:26;;;;;;;2.00;1.80;;;8.60;91.30;;;;;;5026754;28;20644;-74
2024/02/26 09:39:53;;;;;;;3.67;1.87;;;8.70;91.30;;;;;;5024268;28;20642;-75
2024/02/26 09:42:20;;;;;;;4.97;2.70;;;8.70;91.20;;;;;;5027361;28;21220;-74
2024/02/26 09:44:48;;;;;;;3.63;2.60;;;8.70;91.50;;;;;;5025731;28;20728;-75
2024/02/26 09:47:17;;;;;;;1.90;1.67;;;9.00;94.30;;;;;;5026145;28;20761;-74
2024/02/26 09:49:47;;;;;;;1.93;1.83;;;8.80;92.00;;;;;;5027156;27;20701;-74
2024/02/26 09:52:16;;;;;;;1.67;1.57;;;8.90;91.80;;;;;;5021749;28;20736;-74
2024/02/26 09:54:43;;;;;;;1.57;1.47;;;9.10;91.50;;;;;;5022075;28;20627;-74
2024/02/26 09:57:15;;;;;;;2.43;2.10;;;9.20;90.40;;;;;;5023711;28;20706;-74
2024/02/26 09:59:43;;;;;;;2.43;2.23;;;9.40;90.50;;;;;;5022760;28;20662;-74
2024/02/26 10:02:12;;;;;;;2.40;2.20;;;9.50;90.80;;;;;;5025387;28;20637;-74
2024/02/26 10:04:40;;;;;;;2.70;2.43;;;9.60;91.10;;;;;;5023274;28;20633;-75
2024/02/26 10:07:11;;;;;;;4.43;2.53;;;9.70;91.10;;;;;;5019637;28;21030;-75
2024/02/26 10:09:38;;;;;;;2.63;1.90;;;9.80;90.90;;;;;;5019017;28;20654;-75
2024/02/26 10:12:07;;;;;;;2.27;1.63;;;10.00;87.60;;;;;;5026768;28;20630;-74
2024/02/26 10:14:34;;;;;;;1.97;1.80;;;10.00;86.20;;;;;;5018797;28;21209;-74
2024/02/26 10:17:02;;;;;;;1.70;1.60;;;10.00;86.40;;;;;;5024266;28;20782;-75
2024/02/26 10:19:30;;;;;;;2.93;1.80;;;10.10;86.50;;;;;;5035390;27;20628;-75
2024/02/26 10:22:01;;;;;;;1.63;1.53;;;10.20;85.40;;;;;;5030638;27;20731;-74
2024/02/26 10:24:30;;;;;;;2.30;2.10;;;10.30;84.00;;;;;;5025823;28;20634;-75
2024/02/26 10:26:58;;;;;;;4.80;2.00;;;10.50;82.70;;;;;;5021357;28;20696;-75
2024/02/26 10:29:25;;;;;;;1.90;1.67;;;10.60;83.40;;;;;;5030966;28;20623;-75
2024/02/26 10:31:53;;;;;;;2.60;2.40;;;10.60;84.10;;;;;;5027848;28;20738;-75
2024/02/26 10:34:20;;;;;;;3.30;3.00;;;10.70;83.10;;;;;;5026554;28;20742;-75
2024/02/26 10:36:47;;;;;;;3.57;3.13;;;10.70;83.90;;;;;;5026686;28;21159;-75
2024/02/26 10:39:14;;;;;;;3.80;3.50;;;10.80;84.80;;;;;;5022521;28;20718;-75
2024/02/26 10:41:43;;;;;;;4.00;3.40;;;10.70;85.40;;;;;;5028317;28;21225;-75
2024/02/26 10:44:12;;;;;;;2.67;2.53;;;10.80;85.80;;;;;;5015948;28;20722;-75
2024/02/26 10:46:38;;;;;;;3.00;2.80;;;10.80;85.10;;;;;;5025033;28;20659;-75
2024/02/26 10:49:06;;;;;;;5.07;3.50;;;11.00;84.70;;;;;;5020573;28;20624;-74
2024/02/26 10:51:38;;;;;;;4.63;3.90;;;10.90;85.20;;;;;;5024979;28;20623;-75
2024/02/26 10:54:07;;;;;;;3.70;3.40;;;10.70;86.80;;;;;;5025168;28;21196;-74
2024/02/26 10:56:37;;;;;;;5.90;3.70;;;10.60;87.50;;;;;;5022478;28;20641;-75
2024/02/26 10:59:08;;;;;;;3.47;3.03;;;10.70;87.60;;;;;;5025128;28;20635;-75
2024/02/26 11:01:38;;;;;;;3.80;3.13;;;10.70;87.50;;;;;;5023668;28;21087;-75
2024/02/26 11:04:05;;;;;;;3.63;3.30;;;10.70;87.70;;;;;;5031119;28;20630;-75
2024/02/26 11:06:34;;;;;;;3.27;2.70;;;10.50;89.60;;;;;;5024019;28;20732;-75
2024/02/26 11:09:03;;;;;;;4.17;3.57;;;10.80;84.90;;;;;;5021687;28;20735;-74
2024/02/26 11:11:31;;;;;;;2.53;2.33;;;11.00;83.80;;;;;;5028160;28;20628;-74
2024/02/26 11:13:58;;;;;;;2.43;2.23;;;10.90;83.50;;;;;;5024012;28;21092;-74
2024/02/26 11:16:28;;;;;;;2.47;2.17;;;10.90;83.40;;;;;;5025161;28;20776;-74
2024/02/26 11:18:56;;;;;;;2.37;2.17;;;11.00;81.20;;;;;;5029637;28;20717;-74
2024/02/26 11:21:27;;;;;;;4.20;1.77;;;11.00;81.60;;;;;;5025263;28;20629;-74
2024/02/26 11:23:55;;;;;;;1.87;1.73;;;11.00;81.80;;;;;;5025686;28;20675;-74
2024/02/26 11:26:24;;;;;;;2.73;2.33;;;10.90;83.10;;;;;;5017834;28;20643;-74
2024/02/26 11:28:53;;;;;;;2.07;1.87;;;10.90;83.00;;;;;;5020437;28;20630;-75
2024/02/26 11:31:26;;;;;;;2.63;2.00;;;10.90;83.60;;;;;;5027129;28;20628;-74
2024/02/26 11:33:55;;;;;;;5.23;2.53;;;11.10;83.80;;;;;;5025339;28;20724;-74
2024/02/26 11:36:24;;;;;;;2.40;2.00;;;11.20;82.70;;;;;;5026711;28;21168;-75
2024/02/26 11:38:52;;;;;;;2.80;2.27;;;11.10;81.80;;;;;;5028024;28;20634;-74
2024/02/26 11:41:19;;;;;;;3.37;1.60;;;11.10;80.90;;;;;;5025875;28;20633;-74
2024/02/26 11:43:53;;;;;;;1.60;1.50;;;11.10;80.90;;;;;;5027717;28;20625;-75
2024/02/26 11:46:26;;;;;;;2.10;1.10;;;11.20;80.70;;;;;;5023351;28;20714;-75
2024/02/26 11:48:56;;;;;;;1.80;1.70;;;11.20;80.90;;;;;;5021743;28;20988;-75
2024/02/26 11:51:27;;;;;;;1.70;1.60;;;11.30;80.30;;;;;;5023262;28;20631;-75
2024/02/26 11:53:54;;;;;;;1.30;1.20;;;11.50;77.90;;;;;;5027184;28;20674;-75
2024/02/26 11:56:23;;;;;;;1.67;1.57;;;11.50;78.30;;;;;;5024480;28;20633;-75
2024/02/26 11:58:55;;;;;;;3.93;1.67;;;11.50;78.70;;;;;;5026922;28;20662;-74
2024/02/26 12:01:41;;;;;;;1.50;1.40;;;11.60;78.80;;;;;;5024289;28;20733;-74
2024/02/26 12:04:14;;;;;;;1.30;1.20;;;11.60;78.90;;;;;;5022854;28;20672;-75
2024/02/26 12:06:43;;;;;;;2.30;1.60;;;11.70;78.40;;;;;;5023611;28;20982;-75
2024/02/26 12:09:10;;;;;;;2.17;1.60;;;11.80;78.90;;;;;;5026714;28;20725;-75
2024/02/26 12:11:39;;;;;;;2.70;1.40;;;11.70;78.20;;;;;;5026261;28;20732;-76
2024/02/26 12:14:08;;;;;;;2.67;1.57;;;11.80;78.40;;;;;;5020293;28;21399;-76
2024/02/26 12:16:39;;;;;;;2.40;1.77;;;11.70;78.50;;;;;;5027042;28;20709;-76
2024/02/26 12:19:06;;;;;;;1.80;1.50;;;11.70;77.80;;;;;;5026673;28;20630;-73
2024/02/26 12:21:36;;;;;;;1.50;1.40;;;11.60;78.90;;;;;;5024151;28;21422;-75
2024/02/26 12:24:14;;;;;;;1.50;1.40;;;11.60;78.50;;;;;;5025402;28;21118;-75
2024/02/26 12:26:41;;;;;;;1.87;1.60;;;11.70;79.40;;;;;;5025437;28;20628;-75
2024/02/26 12:29:09;;;;;;;3.33;1.60;;;11.70;79.10;;;;;;5019711;28;21224;-75
2024/02/26 12:31:38;;;;;;;1.10;1.10;;;11.70;78.30;;;;;;5023036;28;20735;-75
2024/02/26 12:34:06;;;;;;;1.40;1.30;;;11.70;79.00;;;;;;5024824;28;20646;-74
2024/02/26 12:36:34;;;;;;;2.53;1.53;;;11.70;79.00;;;;;;5024207;28;21190;-75
2024/02/26 12:39:02;;;;;;;2.53;1.53;;;11.70;78.70;;;;;;5025581;28;20622;-76
2024/02/26 12:41:30;;;;;;;1.80;1.50;;;11.90;80.00;;;;;;5019879;28;21194;-75
2024/02/26 12:43:57;;;;;;;2.60;1.60;;;12.10;79.80;;;;;;5025828;28;20972;-75
2024/02/26 12:46:24;;;;;;;2.40;1.57;;;12.20;79.10;;;;;;5019020;28;20986;-75
2024/02/26 12:48:51;;;;;;;1.37;1.27;;;12.40;77.80;;;;;;5020468;28;21064;-75
2024/02/26 12:51:18;;;;;;;1.43;1.27;;;12.50;78.30;;;;;;5024299;28;20629;-75
2024/02/26 12:53:46;;;;;;;1.53;1.27;;;12.60;77.30;;;;;;5025353;28;20620;-75
2024/02/26 12:56:14;;;;;;;1.50;1.13;;;12.60;78.00;;;;;;5029275;27;20623;-75